Time;durP1;ratioP1;P1;durP2;ratioP2;P2;SDS_P1;SDS_P2;PMS_P1;PMS_P2;Temp;Humidity;BMP_temperature;BMP_pressure;BME280_temperature;BME280_humidity;BME280_pressure;Samples;Min_cycle;Max_cycle;Signal;HPM_P1;HPM_P2
2024/03/01 00:02:00;;;;;;;12.00;8.00;;;17.60;51.40;;;;;;4973013;28;20580;-76
2024/03/01 00:04:28;;;;;;;11.33;7.80;;;17.60;51.30;;;;;;4972853;28;20508;-76
2024/03/01 00:06:56;;;;;;;9.87;7.63;;;17.60;51.50;;;;;;4971038;28;20482;-76
2024/03/01 00:09:24;;;;;;;12.93;8.20;;;17.60;51.40;;;;;;4970766;28;20463;-76
2024/03/01 00:11:52;;;;;;;12.43;8.00;;;17.60;51.50;;;;;;4969140;28;20555;-77
2024/03/01 00:14:21;;;;;;;11.30;7.87;;;17.60;51.60;;;;;;4968708;28;20468;-77
2024/03/01 00:16:50;;;;;;;11.30;8.10;;;17.60;51.50;;;;;;4967176;28;20533;-76
2024/03/01 00:19:18;;;;;;;10.63;7.73;;;17.60;51.40;;;;;;4964272;28;20550;-76
2024/03/01 00:21:46;;;;;;;13.13;9.03;;;17.50;51.40;;;;;;4971518;28;20498;-76
2024/03/01 00:24:15;;;;;;;12.43;8.10;;;17.50;51.30;;;;;;4969847;28;20447;-75
2024/03/01 00:26:45;;;;;;;12.83;8.00;;;17.50;51.40;;;;;;4971577;28;20492;-76
2024/03/01 00:29:13;;;;;;;11.40;8.23;;;17.50;51.30;;;;;;4970753;28;20449;-76
2024/03/01 00:31:43;;;;;;;12.30;8.10;;;17.50;51.20;;;;;;4967937;28;20509;-76
2024/03/01 00:34:11;;;;;;;10.97;8.00;;;17.50;51.20;;;;;;4971090;28;20541;-76
2024/03/01 00:36:39;;;;;;;12.77;8.87;;;17.50;51.20;;;;;;4970515;28;20560;-76
2024/03/01 00:39:08;;;;;;;14.60;8.17;;;17.40;51.20;;;;;;4972373;28;20466;-75
2024/03/01 00:41:36;;;;;;;12.87;7.87;;;17.40;51.10;;;;;;4968517;28;20525;-76
2024/03/01 00:44:04;;;;;;;11.60;8.03;;;17.40;51.00;;;;;;4969564;28;20461;-76
2024/03/01 00:46:32;;;;;;;10.20;7.40;;;17.40;51.00;;;;;;4970453;28;20482;-76
2024/03/01 00:49:01;;;;;;;10.50;7.93;;;17.40;51.10;;;;;;4972352;28;20457;-76
2024/03/01 00:51:29;;;;;;;11.27;8.27;;;17.40;51.00;;;;;;4969405;28;20483;-76
2024/03/01 00:53:58;;;;;;;12.90;8.97;;;17.30;51.00;;;;;;4965716;28;20458;-77
2024/03/01 00:56:26;;;;;;;10.53;8.17;;;17.30;51.00;;;;;;4971007;28;20487;-78
2024/03/01 00:58:54;;;;;;;11.47;8.20;;;17.30;50.90;;;;;;4971330;28;20427;-77
2024/03/01 01:01:22;;;;;;;9.90;7.80;;;17.30;51.00;;;;;;4972710;28;20497;-77
2024/03/01 01:03:50;;;;;;;12.00;7.77;;;17.30;51.00;;;;;;4969025;28;20542;-76
2024/03/01 01:06:19;;;;;;;12.50;7.87;;;17.30;51.10;;;;;;4971194;28;20513;-77
2024/03/01 01:08:47;;;;;;;11.37;8.50;;;17.30;51.30;;;;;;4973241;28;20446;-76
2024/03/01 01:11:15;;;;;;;13.63;7.97;;;17.20;51.30;;;;;;4972671;28;20474;-77
2024/03/01 01:13:43;;;;;;;13.53;7.67;;;17.20;52.00;;;;;;4963930;28;20458;-76
2024/03/01 01:16:11;;;;;;;10.50;8.00;;;17.20;51.30;;;;;;4970512;28;20525;-77
2024/03/01 01:18:39;;;;;;;9.40;6.80;;;17.20;51.30;;;;;;4972472;28;20453;-77
2024/03/01 01:21:07;;;;;;;13.10;9.03;;;17.20;51.40;;;;;;4972552;28;20525;-77
2024/03/01 01:23:37;;;;;;;12.13;7.53;;;17.20;51.40;;;;;;4973070;28;20541;-76
2024/03/01 01:26:05;;;;;;;8.93;7.03;;;17.20;51.60;;;;;;4972829;28;20529;-76
2024/03/01 01:28:33;;;;;;;10.13;7.40;;;17.10;51.50;;;;;;4972785;28;20540;-76
2024/03/01 01:31:01;;;;;;;9.57;7.50;;;17.20;51.70;;;;;;4972223;28;20477;-76
2024/03/01 01:33:29;;;;;;;11.07;7.67;;;17.10;51.60;;;;;;4975304;28;20458;-76
2024/03/01 01:35:57;;;;;;;11.60;7.90;;;17.20;51.80;;;;;;4965815;28;20497;-76
2024/03/01 01:38:25;;;;;;;11.30;8.03;;;17.10;51.80;;;;;;4972359;28;20478;-76
2024/03/01 01:40:55;;;;;;;8.90;6.63;;;17.10;51.80;;;;;;4972198;28;20478;-76
2024/03/01 01:43:23;;;;;;;10.20;7.20;;;17.20;51.90;;;;;;4972371;28;20534;-75
2024/03/01 01:45:51;;;;;;;9.93;6.87;;;17.20;52.00;;;;;;4972454;28;20446;-76
2024/03/01 01:48:19;;;;;;;10.77;7.20;;;17.10;52.00;;;;;;4970128;28;20470;-76
2024/03/01 01:50:47;;;;;;;9.53;7.30;;;17.10;51.90;;;;;;4963458;28;20502;-77
2024/03/01 01:53:15;;;;;;;11.47;8.00;;;17.10;52.00;;;;;;4972069;28;20442;-76
2024/03/01 01:55:51;;;;;;;12.10;7.80;;;17.10;52.10;;;;;;4972020;28;20438;-77
2024/03/01 01:58:20;;;;;;;10.17;7.50;;;17.00;52.00;;;;;;4972679;28;20413;-74
2024/03/01 02:00:48;;;;;;;12.47;8.13;;;17.10;52.00;;;;;;4970999;28;20470;-76
2024/03/01 02:03:16;;;;;;;11.50;8.17;;;17.00;51.90;;;;;;4972612;28;20454;-75
2024/03/01 02:05:45;;;;;;;13.97;7.83;;;17.00;51.90;;;;;;4968095;28;20458;-75
2024/03/01 02:08:13;;;;;;;11.70;7.43;;;17.00;51.80;;;;;;4961704;28;20525;-76
2024/03/01 02:10:41;;;;;;;9.97;7.20;;;17.00;52.00;;;;;;4973967;28;20549;-76
2024/03/01 02:13:18;;;;;;;9.13;6.90;;;17.00;51.90;;;;;;4974334;28;20456;-74
2024/03/01 02:15:52;;;;;;;12.70;8.50;;;17.00;51.90;;;;;;4965076;28;20473;-75
2024/03/01 02:18:20;;;;;;;9.63;7.50;;;17.00;52.10;;;;;;4971809;28;20484;-76
2024/03/01 02:20:55;;;;;;;11.77;7.80;;;17.00;52.60;;;;;;4971580;28;20493;-76
2024/03/01 02:23:24;;;;;;;10.73;8.37;;;16.90;52.00;;;;;;4967777;28;20445;-76
2024/03/01 02:25:52;;;;;;;12.27;8.53;;;17.00;52.10;;;;;;4967866;28;20438;-76
2024/03/01 02:28:19;;;;;;;11.43;7.97;;;17.00;52.00;;;;;;4972196;28;20434;-75
2024/03/01 02:30:47;;;;;;;12.57;8.20;;;17.00;52.10;;;;;;4970485;28;20486;-76
2024/03/01 02:33:15;;;;;;;16.87;8.57;;;17.00;52.10;;;;;;4971682;28;20434;-76
2024/03/01 02:35:43;;;;;;;12.50;8.10;;;17.00;52.10;;;;;;4971531;28;20435;-76
2024/03/01 02:38:11;;;;;;;12.17;8.50;;;17.00;52.00;;;;;;4971731;28;20649;-76
2024/03/01 02:40:40;;;;;;;12.53;8.70;;;17.00;52.00;;;;;;4971584;28;20473;-76
2024/03/01 02:43:08;;;;;;;14.70;8.40;;;17.00;52.00;;;;;;4971776;28;20521;-76
2024/03/01 02:45:37;;;;;;;11.70;7.83;;;17.00;52.00;;;;;;4971550;28;20450;-76
2024/03/01 02:48:06;;;;;;;12.23;8.03;;;17.00;51.90;;;;;;4971400;28;20937;-75
2024/03/01 02:50:34;;;;;;;11.80;8.30;;;17.00;52.00;;;;;;4971552;28;20466;-76
2024/03/01 02:53:02;;;;;;;11.40;8.17;;;17.00;52.10;;;;;;4971481;28;20458;-76
2024/03/01 02:55:29;;;;;;;13.57;8.00;;;17.00;52.10;;;;;;4971742;28;20520;-75
2024/03/01 02:58:00;;;;;;;13.07;9.70;;;17.00;52.10;;;;;;4964465;28;20474;-75
2024/03/01 03:00:28;;;;;;;13.83;9.67;;;17.00;52.20;;;;;;4973958;28;20492;-77
2024/03/01 03:02:56;;;;;;;15.10;9.70;;;17.10;52.30;;;;;;4971745;28;20945;-76
2024/03/01 03:05:24;;;;;;;18.20;11.33;;;17.00;52.20;;;;;;4974482;28;20456;-76
2024/03/01 03:07:52;;;;;;;17.40;11.57;;;17.00;52.30;;;;;;4975767;28;20477;-74
2024/03/01 03:10:20;;;;;;;16.60;11.70;;;17.00;52.30;;;;;;4976140;28;20808;-76
2024/03/01 03:12:49;;;;;;;18.07;11.50;;;17.00;52.40;;;;;;4977393;28;20548;-74
2024/03/01 03:15:18;;;;;;;20.27;11.90;;;17.00;52.40;;;;;;4975519;28;20542;-76
2024/03/01 03:17:46;;;;;;;18.17;11.63;;;17.00;52.40;;;;;;4976222;28;20469;-76
2024/03/01 03:20:17;;;;;;;19.40;11.40;;;17.00;52.50;;;;;;4977602;28;20474;-76
2024/03/01 03:22:46;;;;;;;17.40;11.33;;;17.00;52.60;;;;;;4977817;28;20462;-76
2024/03/01 03:25:14;;;;;;;18.73;11.73;;;17.10;52.70;;;;;;4978963;28;20533;-77
2024/03/01 03:27:43;;;;;;;16.70;11.30;;;17.00;52.60;;;;;;4980134;28;20478;-76
2024/03/01 03:34:00;;;;;;;21.50;13.17;;;17.00;52.70;;;;;;4984305;28;20414;-76
2024/03/01 03:36:29;;;;;;;21.07;13.33;;;17.00;52.70;;;;;;4989967;28;20461;-76
2024/03/01 03:38:57;;;;;;;21.90;13.60;;;17.00;52.80;;;;;;4979893;28;20519;-76
2024/03/01 03:41:25;;;;;;;21.60;13.23;;;17.00;52.70;;;;;;4981750;28;20498;-76
2024/03/01 03:43:53;;;;;;;21.53;13.17;;;17.00;52.70;;;;;;4978770;28;20502;-76
2024/03/01 03:46:21;;;;;;;20.73;13.03;;;17.00;52.80;;;;;;4976147;28;20449;-76
2024/03/01 03:48:49;;;;;;;22.73;13.77;;;17.00;52.90;;;;;;4977815;28;20441;-75
2024/03/01 03:51:25;;;;;;;23.73;14.43;;;17.00;52.70;;;;;;4976190;28;20470;-75
2024/03/01 03:53:53;;;;;;;19.70;13.50;;;17.00;52.80;;;;;;4976354;28;20426;-76
2024/03/01 03:56:21;;;;;;;23.03;13.57;;;17.00;53.30;;;;;;4976033;28;20442;-75
2024/03/01 03:58:50;;;;;;;21.60;13.50;;;17.00;52.70;;;;;;4971865;28;20473;-76
2024/03/01 04:01:18;;;;;;;22.77;14.67;;;17.00;52.70;;;;;;4975775;28;20492;-76
2024/03/01 04:03:50;;;;;;;22.33;13.60;;;17.00;52.60;;;;;;4966138;28;20447;-76
2024/03/01 04:06:18;;;;;;;23.80;14.67;;;17.00;52.60;;;;;;4970553;28;20438;-76
2024/03/01 04:08:47;;;;;;;22.30;14.07;;;17.00;52.60;;;;;;4959746;28;20507;-76
2024/03/01 04:11:15;;;;;;;20.80;13.00;;;17.00;52.60;;;;;;4975507;28;20474;-75
2024/03/01 04:13:43;;;;;;;22.80;13.53;;;17.10;52.80;;;;;;4975270;28;20968;-75
2024/03/01 04:16:11;;;;;;;19.50;12.70;;;17.00;52.60;;;;;;4973605;28;20454;-75
2024/03/01 04:18:39;;;;;;;19.77;12.37;;;17.00;52.60;;;;;;4973651;28;20516;-76
2024/03/01 04:21:07;;;;;;;22.40;13.77;;;17.00;52.50;;;;;;4955607;28;20459;-76
2024/03/01 04:23:35;;;;;;;20.77;13.27;;;17.00;52.70;;;;;;4955861;28;20486;-76
2024/03/01 04:26:09;;;;;;;22.63;13.70;;;17.00;52.60;;;;;;4956113;29;20451;-75
2024/03/01 04:28:38;;;;;;;21.60;13.77;;;17.00;52.60;;;;;;4972206;28;20497;-75
2024/03/01 04:31:07;;;;;;;23.27;14.43;;;17.00;52.60;;;;;;4974888;28;20478;-75
2024/03/01 04:33:38;;;;;;;21.17;13.37;;;17.00;52.60;;;;;;4974430;28;20454;-75
2024/03/01 04:36:07;;;;;;;22.57;13.27;;;17.00;52.50;;;;;;4975286;28;20477;-75
2024/03/01 04:38:35;;;;;;;25.50;14.47;;;17.00;52.50;;;;;;4975135;28;20504;-74
2024/03/01 04:41:05;;;;;;;21.33;13.33;;;17.10;52.60;;;;;;4975080;28;20455;-75
2024/03/01 04:43:34;;;;;;;21.57;13.40;;;17.00;52.50;;;;;;4975179;28;20521;-76
2024/03/01 04:46:03;;;;;;;21.43;12.57;;;17.10;52.70;;;;;;4955882;28;20977;-75
2024/03/01 04:48:30;;;;;;;21.23;13.53;;;17.00;52.60;;;;;;4962003;28;20550;-76
2024/03/01 04:50:58;;;;;;;23.27;14.20;;;17.00;52.70;;;;;;4975041;28;20569;-76
2024/03/01 04:53:26;;;;;;;20.40;13.33;;;17.00;52.70;;;;;;4974990;28;20572;-76
2024/03/01 04:55:54;;;;;;;20.00;12.53;;;17.00;52.60;;;;;;4974837;28;20501;-76
2024/03/01 04:58:23;;;;;;;19.20;12.70;;;17.00;52.70;;;;;;4974240;28;20469;-76
2024/03/01 05:00:51;;;;;;;20.73;12.90;;;17.00;52.70;;;;;;4974954;28;20482;-76
2024/03/01 05:03:20;;;;;;;20.07;12.50;;;17.10;52.70;;;;;;4974805;28;20489;-75
2024/03/01 05:05:48;;;;;;;18.80;12.17;;;17.10;52.90;;;;;;4961343;28;20518;-75
2024/03/01 05:08:19;;;;;;;19.80;12.80;;;17.10;52.90;;;;;;4969853;28;20490;-75
2024/03/01 05:10:49;;;;;;;19.80;13.13;;;17.10;52.90;;;;;;4972148;28;20492;-75
2024/03/01 05:13:18;;;;;;;21.97;12.53;;;17.10;52.80;;;;;;4974250;28;20481;-75
2024/03/01 05:15:48;;;;;;;20.07;12.53;;;17.10;52.80;;;;;;4966197;28;21233;-76
2024/03/01 05:18:17;;;;;;;22.93;13.50;;;17.10;52.90;;;;;;4974885;28;20494;-75
2024/03/01 05:20:45;;;;;;;20.97;11.83;;;17.10;52.90;;;;;;4976005;28;20466;-75
2024/03/01 05:23:14;;;;;;;19.30;12.60;;;17.10;52.90;;;;;;4974441;28;20516;-75
2024/03/01 05:25:42;;;;;;;18.77;12.00;;;17.10;53.00;;;;;;4974355;28;20605;-76
2024/03/01 05:28:10;;;;;;;18.50;12.20;;;17.10;53.10;;;;;;4958009;28;20501;-76
2024/03/01 05:30:38;;;;;;;20.57;13.07;;;17.10;53.00;;;;;;4995497;23;20550;-76
2024/03/01 05:33:20;;;;;;;19.07;12.00;;;17.10;53.10;;;;;;4994316;28;20543;-79
2024/03/01 05:35:47;;;;;;;16.77;11.50;;;17.00;53.10;;;;;;4998039;28;20433;-79
2024/03/01 05:38:15;;;;;;;22.17;12.33;;;17.00;53.10;;;;;;4985485;28;20553;-79
2024/03/01 05:40:43;;;;;;;19.00;12.60;;;17.00;53.20;;;;;;4978312;28;20477;-78
2024/03/01 05:43:21;;;;;;;18.53;11.97;;;17.00;53.20;;;;;;4986906;28;20524;-77
2024/03/01 05:45:50;;;;;;;18.97;12.43;;;17.10;53.40;;;;;;4994388;28;20808;-77
2024/03/01 05:48:20;;;;;;;20.10;12.33;;;17.10;53.30;;;;;;4994202;28;20500;-77
2024/03/01 05:50:48;;;;;;;19.93;12.10;;;17.10;53.40;;;;;;4987715;28;20464;-77
2024/03/01 05:53:16;;;;;;;19.47;11.63;;;17.10;53.40;;;;;;4990826;28;20512;-77
2024/03/01 05:55:45;;;;;;;19.07;11.90;;;17.10;53.60;;;;;;4991827;28;20991;-76
2024/03/01 05:58:13;;;;;;;19.23;12.37;;;17.00;53.40;;;;;;4988257;28;20462;-78
2024/03/01 06:00:42;;;;;;;18.60;12.00;;;17.10;53.60;;;;;;4990355;28;20496;-77
2024/03/01 06:03:11;;;;;;;17.10;11.80;;;17.00;53.40;;;;;;4987125;28;20446;-78
2024/03/01 06:05:41;;;;;;;18.47;11.87;;;17.00;53.40;;;;;;4997961;28;20503;-78
2024/03/01 06:08:09;;;;;;;18.97;12.20;;;17.00;53.30;;;;;;4994467;28;20449;-79
2024/03/01 06:10:37;;;;;;;18.30;11.90;;;17.10;53.40;;;;;;4998101;28;20457;-78
2024/03/01 06:13:05;;;;;;;18.97;12.40;;;17.10;53.50;;;;;;5001845;28;20455;-78
2024/03/01 06:15:33;;;;;;;20.40;12.20;;;17.10;53.40;;;;;;5002391;28;20449;-78
2024/03/01 06:18:01;;;;;;;19.63;12.93;;;17.10;53.50;;;;;;4985887;28;20444;-78
2024/03/01 06:20:30;;;;;;;20.67;12.67;;;17.10;53.40;;;;;;4996032;28;20559;-78
2024/03/01 06:23:00;;;;;;;21.27;12.13;;;17.10;53.40;;;;;;4993234;28;20449;-78
2024/03/01 06:25:28;;;;;;;20.10;12.67;;;17.00;53.40;;;;;;4991687;28;20536;-77
2024/03/01 06:27:56;;;;;;;20.13;12.60;;;17.10;53.50;;;;;;4990277;28;20442;-78
2024/03/01 06:30:24;;;;;;;19.40;12.20;;;17.10;53.40;;;;;;4980279;28;20445;-77
2024/03/01 06:32:53;;;;;;;18.17;11.80;;;17.10;53.40;;;;;;4998741;28;20476;-77
2024/03/01 06:35:22;;;;;;;18.00;11.67;;;17.10;53.40;;;;;;4987938;28;20505;-77
2024/03/01 06:37:49;;;;;;;20.17;11.77;;;17.10;54.20;;;;;;4994100;28;20432;-77
2024/03/01 06:40:19;;;;;;;21.80;13.30;;;17.00;53.50;;;;;;4993797;28;20991;-77
2024/03/01 06:42:47;;;;;;;18.57;11.53;;;17.10;53.50;;;;;;4988465;28;20560;-78
2024/03/01 06:45:19;;;;;;;23.07;13.00;;;17.10;53.60;;;;;;4988236;28;20451;-77
2024/03/01 06:47:48;;;;;;;20.90;11.80;;;17.10;53.50;;;;;;4987456;28;20453;-77
2024/03/01 06:50:17;;;;;;;22.10;12.63;;;17.10;53.50;;;;;;4994661;28;20441;-77
2024/03/01 06:52:45;;;;;;;23.13;14.03;;;17.10;53.60;;;;;;4995748;28;20557;-77
2024/03/01 06:55:14;;;;;;;18.93;11.83;;;17.10;53.50;;;;;;4995488;28;20441;-77
2024/03/01 06:57:46;;;;;;;18.57;12.10;;;17.10;53.50;;;;;;4996602;28;20429;-80
2024/03/01 07:00:15;;;;;;;19.13;12.47;;;17.10;53.50;;;;;;4998372;28;20568;-79
2024/03/01 07:02:43;;;;;;;18.17;12.00;;;17.10;53.60;;;;;;5003190;28;20461;-77
2024/03/01 07:05:11;;;;;;;21.27;12.47;;;17.10;53.60;;;;;;4992313;28;20468;-78
2024/03/01 07:07:39;;;;;;;19.27;12.50;;;17.20;53.80;;;;;;4985169;28;20466;-77
2024/03/01 07:10:08;;;;;;;20.87;12.93;;;17.20;53.70;;;;;;4992077;28;20450;-78
2024/03/01 07:12:36;;;;;;;20.53;12.13;;;17.20;53.70;;;;;;4981359;28;20480;-78
2024/03/01 07:15:08;;;;;;;19.87;12.00;;;17.20;53.60;;;;;;4993353;28;20445;-77
2024/03/01 07:17:36;;;;;;;19.17;12.30;;;17.30;53.60;;;;;;4988575;28;20524;-78
2024/03/01 07:20:04;;;;;;;21.00;13.00;;;17.20;53.50;;;;;;4992720;28;20477;-78
2024/03/01 07:22:32;;;;;;;22.40;12.03;;;17.20;53.50;;;;;;4997319;28;20518;-77
2024/03/01 07:32:36;;;;;;;20.40;12.37;;;17.20;53.50;;;;;;4986183;28;20469;-80
2024/03/01 07:35:05;;;;;;;19.77;13.07;;;17.20;53.60;;;;;;4989767;28;20453;-77
2024/03/01 07:37:33;;;;;;;21.20;12.67;;;17.30;53.60;;;;;;4995905;28;20431;-78
2024/03/01 07:40:04;;;;;;;18.93;12.37;;;17.30;53.50;;;;;;4996271;28;20508;-77
2024/03/01 07:42:32;;;;;;;19.70;12.50;;;17.30;53.50;;;;;;4999277;28;20471;-77
2024/03/01 07:45:00;;;;;;;20.13;12.20;;;17.30;53.40;;;;;;4980691;28;20494;-77
2024/03/01 07:47:29;;;;;;;18.77;11.90;;;17.40;53.50;;;;;;4988703;28;20667;-77
2024/03/01 07:49:59;;;;;;;20.30;12.13;;;17.40;53.40;;;;;;4989077;28;20455;-77
2024/03/01 07:52:28;;;;;;;22.53;12.97;;;17.40;53.30;;;;;;4991297;28;20468;-77
2024/03/01 07:54:56;;;;;;;22.10;12.27;;;17.40;53.30;;;;;;4996224;28;20447;-77
2024/03/01 07:57:24;;;;;;;21.23;13.13;;;17.40;53.10;;;;;;4987981;28;20458;-77
2024/03/01 07:59:52;;;;;;;20.43;12.90;;;17.50;53.20;;;;;;4992489;28;20535;-78
2024/03/01 08:02:20;;;;;;;20.87;12.53;;;17.50;53.10;;;;;;4998712;28;20524;-78
2024/03/01 08:04:48;;;;;;;20.07;12.50;;;17.50;53.10;;;;;;4997276;28;20524;-77
2024/03/01 08:07:17;;;;;;;18.67;11.73;;;17.60;53.10;;;;;;4986129;28;21037;-77
2024/03/01 08:09:45;;;;;;;21.73;13.10;;;17.60;52.90;;;;;;4994524;28;20440;-77
2024/03/01 08:12:14;;;;;;;22.23;12.93;;;17.70;53.00;;;;;;4977507;28;20557;-77
2024/03/01 08:14:43;;;;;;;21.73;12.70;;;17.70;52.80;;;;;;4993238;28;20548;-78
2024/03/01 08:17:11;;;;;;;19.00;12.63;;;17.70;52.70;;;;;;4994080;28;20479;-78
2024/03/01 08:19:45;;;;;;;19.90;12.50;;;17.70;52.70;;;;;;4987034;28;20480;-78
2024/03/01 08:22:17;;;;;;;18.00;12.00;;;17.70;52.80;;;;;;4986642;28;20464;-78
2024/03/01 08:24:46;;;;;;;19.63;12.50;;;17.80;52.70;;;;;;4996304;28;20528;-78
2024/03/01 08:27:15;;;;;;;20.13;12.03;;;17.80;52.60;;;;;;4986331;28;20520;-78
2024/03/01 08:29:43;;;;;;;17.10;11.67;;;17.80;52.60;;;;;;4995475;28;20513;-79
2024/03/01 08:32:28;;;;;;;20.03;12.10;;;17.80;52.70;;;;;;5001253;28;20492;-79
2024/03/01 08:34:56;;;;;;;22.20;12.80;;;17.90;52.60;;;;;;4983475;28;21017;-77
2024/03/01 08:37:27;;;;;;;19.30;13.00;;;17.80;52.50;;;;;;4978240;28;20445;-79
2024/03/01 08:39:55;;;;;;;20.30;12.97;;;17.90;52.80;;;;;;4994522;28;20572;-79
2024/03/01 08:42:24;;;;;;;19.80;12.37;;;17.90;52.40;;;;;;4988284;28;20541;-78
2024/03/01 08:44:54;;;;;;;19.93;12.67;;;17.90;52.30;;;;;;4993571;28;20445;-78
2024/03/01 08:47:25;;;;;;;19.50;12.50;;;18.00;52.40;;;;;;4977500;28;20463;-78
2024/03/01 08:50:22;;;;;;;23.97;12.60;;;18.00;52.40;;;;;;5001489;28;20509;-77
2024/03/01 08:52:52;;;;;;;20.57;12.90;;;18.00;52.20;;;;;;4982837;28;20490;-78
2024/03/01 08:55:39;;;;;;;20.70;12.40;;;18.00;52.10;;;;;;4994933;28;20453;-79
2024/03/01 08:58:14;;;;;;;21.43;13.10;;;18.10;52.10;;;;;;5000135;28;20464;-79
2024/03/01 09:00:45;;;;;;;26.23;13.13;;;18.10;52.00;;;;;;4990261;28;20480;-78
2024/03/01 09:03:15;;;;;;;19.93;12.50;;;18.10;51.80;;;;;;4996261;28;20472;-79
2024/03/01 09:05:43;;;;;;;23.00;12.87;;;18.10;52.50;;;;;;5000502;28;20433;-78
2024/03/01 09:08:14;;;;;;;18.87;12.00;;;18.20;51.80;;;;;;4982840;28;20469;-77
2024/03/01 09:10:43;;;;;;;20.97;13.63;;;18.20;51.80;;;;;;4989294;28;20508;-77
2024/03/01 09:13:15;;;;;;;19.10;12.57;;;18.20;51.70;;;;;;4987252;28;20492;-76
2024/03/01 09:15:44;;;;;;;18.20;11.73;;;18.20;51.70;;;;;;4991853;28;20492;-77
2024/03/01 09:18:24;;;;;;;22.70;13.60;;;18.10;51.60;;;;;;4992647;28;20437;-75
2024/03/01 09:20:52;;;;;;;21.30;12.60;;;18.10;51.50;;;;;;4980531;28;20491;-78
2024/03/01 09:23:22;;;;;;;20.63;12.70;;;18.10;51.70;;;;;;4989306;28;20449;-78
2024/03/01 09:26:00;;;;;;;20.40;12.80;;;18.10;51.70;;;;;;4993218;28;20444;-79
2024/03/01 09:28:28;;;;;;;20.40;12.17;;;18.10;51.80;;;;;;4990159;28;20445;-78
2024/03/01 09:30:57;;;;;;;18.50;11.83;;;18.10;51.80;;;;;;4990174;28;20465;-79
2024/03/01 09:33:26;;;;;;;18.30;11.70;;;18.10;51.90;;;;;;4987497;28;20446;-78
2024/03/01 09:35:54;;;;;;;18.40;11.77;;;18.10;52.00;;;;;;4994517;28;20524;-78
2024/03/01 09:38:25;;;;;;;17.63;10.87;;;18.10;52.00;;;;;;4993589;28;20449;-78
2024/03/01 09:41:07;;;;;;;19.30;10.93;;;18.10;52.00;;;;;;5001251;28;20494;-79
2024/03/01 09:43:41;;;;;;;17.70;10.90;;;18.20;52.00;;;;;;4994196;28;20453;-78
2024/03/01 09:46:12;;;;;;;17.20;11.30;;;18.20;52.10;;;;;;5000639;28;20441;-79
2024/03/01 09:48:46;;;;;;;17.80;10.93;;;18.30;52.00;;;;;;4997750;28;20462;-79
2024/03/01 09:51:25;;;;;;;44.87;18.70;;;18.30;51.90;;;;;;4997417;28;20453;-75
2024/03/01 09:54:05;;;;;;;33.47;18.90;;;17.40;50.90;;;;;;4991212;28;20508;-75
2024/03/01 09:56:35;;;;;;;32.27;18.67;;;15.60;55.90;;;;;;4990682;28;20441;-75
2024/03/01 09:59:08;;;;;;;34.97;17.50;;;14.60;59.50;;;;;;4989755;28;20442;-75
2024/03/01 10:01:37;;;;;;;36.47;17.33;;;13.90;60.70;;;;;;4984466;28;20472;-75
2024/03/01 10:04:11;;;;;;;34.03;18.27;;;13.30;64.60;;;;;;4984340;28;20533;-77
2024/03/01 10:07:03;;;;;;;34.20;18.13;;;12.70;66.30;;;;;;4987701;28;20473;-77
2024/03/01 10:09:54;;;;;;;32.57;16.77;;;13.70;69.90;;;;;;4982810;28;20541;-76
2024/03/01 10:12:27;;;;;;;29.60;15.63;;;14.80;66.60;;;;;;4987171;28;20469;-77
2024/03/01 10:15:02;;;;;;;30.80;16.87;;;15.70;63.30;;;;;;4988169;28;20449;-76
2024/03/01 10:17:37;;;;;;;25.40;15.37;;;16.40;61.00;;;;;;4984920;28;20457;-76
2024/03/01 10:20:12;;;;;;;22.63;14.50;;;16.80;58.60;;;;;;4987143;28;20536;-77
2024/03/01 10:22:48;;;;;;;25.10;14.80;;;17.20;57.50;;;;;;4987477;28;20547;-77
2024/03/01 10:25:24;;;;;;;27.43;15.33;;;17.50;56.80;;;;;;4986448;28;20507;-76
2024/03/01 10:27:53;;;;;;;21.63;13.90;;;17.70;55.80;;;;;;4983471;28;20460;-77
2024/03/01 10:30:21;;;;;;;23.27;13.73;;;17.80;55.30;;;;;;4988452;28;20815;-77
2024/03/01 10:32:59;;;;;;;20.00;13.23;;;17.90;55.20;;;;;;4987288;28;20472;-76
2024/03/01 10:35:28;;;;;;;18.40;12.40;;;18.10;54.80;;;;;;4987297;28;20441;-77
2024/03/01 10:38:22;;;;;;;24.43;11.90;;;18.20;54.50;;;;;;4989175;28;20472;-77
2024/03/01 10:41:05;;;;;;;21.50;12.33;;;18.20;54.20;;;;;;4990237;28;20532;-77
2024/03/01 10:43:48;;;;;;;21.27;13.10;;;18.30;54.00;;;;;;4988527;28;20441;-78
2024/03/01 10:46:19;;;;;;;17.47;11.70;;;18.30;53.80;;;;;;4987487;28;20479;-77
2024/03/01 10:48:51;;;;;;;15.20;10.70;;;18.20;53.80;;;;;;4986170;28;20442;-77
2024/03/01 10:51:20;;;;;;;17.33;10.43;;;18.20;53.80;;;;;;4988688;28;20891;-77
2024/03/01 10:53:50;;;;;;;18.07;11.10;;;18.30;54.00;;;;;;4990374;28;20449;-76
2024/03/01 10:56:20;;;;;;;13.83;9.43;;;18.20;54.00;;;;;;4987861;28;20528;-77
2024/03/01 10:58:51;;;;;;;15.37;9.67;;;18.30;54.00;;;;;;4991193;28;20451;-76
2024/03/01 11:01:25;;;;;;;16.00;9.77;;;18.30;54.00;;;;;;4989110;28;20485;-76
2024/03/01 11:03:58;;;;;;;15.87;9.40;;;18.30;54.00;;;;;;4989191;28;20523;-77
2024/03/01 11:06:28;;;;;;;12.40;8.20;;;18.40;54.10;;;;;;4987770;28;20534;-78
2024/03/01 11:08:58;;;;;;;12.20;8.40;;;18.40;54.10;;;;;;4989627;28;20453;-77
2024/03/01 11:11:31;;;;;;;12.37;8.10;;;18.40;54.00;;;;;;4988418;28;20457;-80
2024/03/01 11:14:00;;;;;;;12.13;8.13;;;18.50;54.20;;;;;;4989473;28;20430;-77
2024/03/01 11:16:30;;;;;;;13.70;8.50;;;18.50;54.10;;;;;;4988495;28;20445;-77
2024/03/01 11:19:00;;;;;;;8.73;7.00;;;18.60;54.30;;;;;;4988285;28;20437;-77
2024/03/01 11:21:29;;;;;;;9.83;7.23;;;18.70;54.30;;;;;;4988256;28;20488;-76
2024/03/01 11:23:58;;;;;;;8.73;6.77;;;18.80;54.40;;;;;;4987862;28;20500;-77
2024/03/01 11:26:31;;;;;;;11.37;7.03;;;19.20;54.70;;;;;;4989166;28;20454;-77
2024/03/01 11:29:03;;;;;;;8.67;6.73;;;19.50;53.80;;;;;;4990072;28;20838;-77
2024/03/01 11:31:31;;;;;;;9.30;6.90;;;19.90;53.80;;;;;;4990835;28;20465;-77
2024/03/01 11:34:06;;;;;;;7.80;6.50;;;20.10;52.70;;;;;;4992317;28;20442;-78
2024/03/01 11:36:41;;;;;;;8.13;6.47;;;20.00;52.10;;;;;;4991289;28;20496;-77
2024/03/01 11:39:19;;;;;;;8.87;6.03;;;19.90;52.20;;;;;;4991350;28;20530;-77
2024/03/01 11:41:51;;;;;;;7.30;6.13;;;19.80;52.40;;;;;;4989473;28;20555;-78
2024/03/01 11:44:33;;;;;;;8.23;6.33;;;19.80;52.70;;;;;;4989999;28;20811;-77
2024/03/01 11:47:10;;;;;;;8.00;5.73;;;19.80;53.10;;;;;;4989833;28;20433;-78
2024/03/01 11:49:55;;;;;;;8.83;6.20;;;19.90;53.10;;;;;;4991327;28;20533;-78
2024/03/01 11:52:52;;;;;;;7.43;6.07;;;19.90;53.00;;;;;;4990818;28;20505;-81
2024/03/01 11:55:24;;;;;;;6.40;5.77;;;19.90;52.90;;;;;;4984638;28;20441;-78
2024/03/01 11:57:58;;;;;;;7.00;5.90;;;19.90;53.00;;;;;;4991313;28;20442;-78
2024/03/01 12:00:48;;;;;;;6.17;5.57;;;19.80;52.80;;;;;;4990573;28;20413;-78
2024/03/01 12:03:39;;;;;;;6.30;5.70;;;19.80;53.20;;;;;;4991566;28;20748;-77
2024/03/01 12:06:12;;;;;;;7.07;5.90;;;19.70;53.30;;;;;;4989418;28;20520;-78
2024/03/01 12:08:44;;;;;;;8.83;6.30;;;19.90;53.60;;;;;;4991021;28;20536;-77
2024/03/01 12:11:17;;;;;;;6.00;5.47;;;20.00;53.40;;;;;;4990937;28;20530;-77
2024/03/01 12:13:50;;;;;;;7.13;5.47;;;20.10;53.20;;;;;;4991378;28;20483;-78
2024/03/01 12:16:21;;;;;;;6.73;6.03;;;20.10;53.00;;;;;;4984620;28;20434;-78
2024/03/01 12:18:52;;;;;;;7.40;5.70;;;20.00;53.00;;;;;;4988234;28;20488;-77
2024/03/01 12:21:26;;;;;;;7.90;5.80;;;20.00;53.20;;;;;;4984346;28;20472;-78
2024/03/01 12:24:00;;;;;;;8.30;6.07;;;20.00;53.20;;;;;;4989991;28;20513;-77
2024/03/01 12:26:31;;;;;;;5.67;5.20;;;19.90;53.10;;;;;;4992819;28;20434;-77
2024/03/01 12:29:07;;;;;;;6.60;5.67;;;19.90;53.20;;;;;;4990854;28;20933;-77
2024/03/01 12:31:38;;;;;;;6.97;6.00;;;19.80;53.30;;;;;;4990536;28;20469;-77
2024/03/01 12:34:27;;;;;;;8.23;5.60;;;19.80;53.20;;;;;;4987067;28;20449;-75
2024/03/01 12:37:01;;;;;;;5.60;5.13;;;19.70;53.30;;;;;;4992242;28;20445;-77
2024/03/01 12:39:30;;;;;;;5.50;5.00;;;19.70;54.20;;;;;;4989833;28;20433;-78
2024/03/01 12:42:08;;;;;;;5.90;5.40;;;19.60;53.50;;;;;;4989179;28;20560;-78
2024/03/01 12:44:44;;;;;;;7.53;5.57;;;19.60;53.60;;;;;;4987142;28;21004;-77
2024/03/01 12:47:26;;;;;;;6.67;5.80;;;19.60;53.70;;;;;;4986663;28;20544;-77
2024/03/01 12:49:59;;;;;;;5.43;4.93;;;19.60;53.80;;;;;;4991789;28;20450;-77
2024/03/01 12:52:42;;;;;;;6.70;5.27;;;19.50;53.80;;;;;;4990248;28;20462;-77
2024/03/01 12:55:15;;;;;;;6.67;5.40;;;19.50;53.70;;;;;;4983355;28;20504;-77
2024/03/01 12:57:48;;;;;;;6.63;5.20;;;19.50;53.70;;;;;;4987356;28;20446;-76
2024/03/01 13:00:19;;;;;;;5.30;4.80;;;19.50;53.90;;;;;;4991198;28;20451;-77
2024/03/01 13:03:06;;;;;;;6.33;4.83;;;19.50;53.70;;;;;;4988685;28;20473;-77